sensor_id;sensor_type;location;lat;lon;timestamp;temperature;humidity
85509;DHT22;75919;48.506;8.946;2024-02-23T06:31:59;3.90;99.90
85509;DHT22;75919;48.506;8.946;2024-02-23T06:34:27;3.90;99.90
85509;DHT22;75919;48.506;8.946;2024-02-23T06:36:52;3.90;99.90
85509;DHT22;75919;48.506;8.946;2024-02-23T06:39:18;3.90;99.90
85509;DHT22;75919;48.506;8.946;2024-02-23T06:41:45;3.80;99.90
85509;DHT22;75919;48.506;8.946;2024-02-23T06:44:11;3.80;99.90
85509;DHT22;75919;48.506;8.946;2024-02-23T06:46:36;3.80;99.90
85509;DHT22;75919;48.506;8.946;2024-02-23T06:49:03;3.80;99.90
85509;DHT22;75919;48.506;8.946;2024-02-23T06:51:31;3.80;99.90
85509;DHT22;75919;48.506;8.946;2024-02-23T06:53:56;3.80;99.90
85509;DHT22;75919;48.506;8.946;2024-02-23T06:56:22;3.80;99.90
85509;DHT22;75919;48.506;8.946;2024-02-23T06:58:48;3.80;99.90
85509;DHT22;75919;48.506;8.946;2024-02-23T07:01:13;3.80;99.90
85509;DHT22;75919;48.506;8.946;2024-02-23T07:03:39;3.80;99.90
85509;DHT22;75919;48.506;8.946;2024-02-23T07:06:06;4.00;99.90
85509;DHT22;75919;48.506;8.946;2024-02-23T07:08:32;3.90;99.90
85509;DHT22;75919;48.506;8.946;2024-02-23T07:10:57;3.90;99.90
85509;DHT22;75919;48.506;8.946;2024-02-23T07:13:23;4.00;99.90
85509;DHT22;75919;48.506;8.946;2024-02-23T07:15:49;3.90;99.90
85509;DHT22;75919;48.506;8.946;2024-02-23T07:18:14;4.00;99.90
85509;DHT22;75919;48.506;8.946;2024-02-23T07:20:41;4.00;99.90
85509;DHT22;75919;48.506;8.946;2024-02-23T07:23:07;4.00;99.90
85509;DHT22;75919;48.506;8.946;2024-02-23T07:25:33;3.90;99.90
85509;DHT22;75919;48.506;8.946;2024-02-23T07:27:58;3.90;99.90
85509;DHT22;75919;48.506;8.946;2024-02-23T07:30:24;3.90;99.90
85509;DHT22;75919;48.506;8.946;2024-02-23T07:32:50;4.00;99.90
85509;DHT22;75919;48.506;8.946;2024-02-23T07:35:16;4.10;99.90
85509;DHT22;75919;48.506;8.946;2024-02-23T07:37:42;4.10;99.90
85509;DHT22;75919;48.506;8.946;2024-02-23T07:40:08;4.20;99.90
85509;DHT22;75919;48.506;8.946;2024-02-23T07:42:33;4.20;99.90
85509;DHT22;75919;48.506;8.946;2024-02-23T07:45:02;4.20;99.90
85509;DHT22;75919;48.506;8.946;2024-02-23T07:47:30;4.20;99.90
85509;DHT22;75919;48.506;8.946;2024-02-23T07:49:55;4.20;99.90
85509;DHT22;75919;48.506;8.946;2024-02-23T07:52:21;4.20;99.90
85509;DHT22;75919;48.506;8.946;2024-02-23T07:54:49;4.10;99.90
85509;DHT22;75919;48.506;8.946;2024-02-23T07:57:17;4.10;99.90
85509;DHT22;75919;48.506;8.946;2024-02-23T07:59:43;4.10;99.90
85509;DHT22;75919;48.506;8.946;2024-02-23T08:02:09;4.10;99.90
85509;DHT22;75919;48.506;8.946;2024-02-23T08:04:34;4.00;99.90
85509;DHT22;75919;48.506;8.946;2024-02-23T08:07:00;4.00;99.90
85509;DHT22;75919;48.506;8.946;2024-02-23T08:09:25;3.90;99.90
85509;DHT22;75919;48.506;8.946;2024-02-23T08:11:51;3.90;99.90
85509;DHT22;75919;48.506;8.946;2024-02-23T08:14:17;4.00;99.90
85509;DHT22;75919;48.506;8.946;2024-02-23T08:16:42;4.00;99.90
85509;DHT22;75919;48.506;8.946;2024-02-23T08:19:08;4.10;99.90
85509;DHT22;75919;48.506;8.946;2024-02-23T08:21:34;4.20;99.90
85509;DHT22;75919;48.506;8.946;2024-02-23T08:23:59;4.20;99.90
85509;DHT22;75919;48.506;8.946;2024-02-23T08:26:25;4.30;99.90
85509;DHT22;75919;48.506;8.946;2024-02-23T08:28:50;4.30;99.90
85509;DHT22;75919;48.506;8.946;2024-02-23T08:31:16;4.30;99.90
85509;DHT22;75919;48.506;8.946;2024-02-23T08:33:42;4.30;99.90
85509;DHT22;75919;48.506;8.946;2024-02-23T08:36:08;4.30;99.90
85509;DHT22;75919;48.506;8.946;2024-02-23T08:38:33;4.30;99.90
85509;DHT22;75919;48.506;8.946;2024-02-23T08:41:00;4.40;99.90
85509;DHT22;75919;48.506;8.946;2024-02-23T08:43:26;4.50;99.90
85509;DHT22;75919;48.506;8.946;2024-02-23T08:45:51;4.60;99.90
85509;DHT22;75919;48.506;8.946;2024-02-23T08:48:17;4.70;99.90
85509;DHT22;75919;48.506;8.946;2024-02-23T08:50:43;4.70;99.90
85509;DHT22;75919;48.506;8.946;2024-02-23T08:53:09;4.70;99.90
85509;DHT22;75919;48.506;8.946;2024-02-23T08:55:35;4.60;99.90
85509;DHT22;75919;48.506;8.946;2024-02-23T08:58:00;4.60;99.90
85509;DHT22;75919;48.506;8.946;2024-02-23T09:00:26;4.60;99.90
85509;DHT22;75919;48.506;8.946;2024-02-23T09:02:52;4.60;99.90
85509;DHT22;75919;48.506;8.946;2024-02-23T09:05:17;4.60;99.90
85509;DHT22;75919;48.506;8.946;2024-02-23T09:07:43;4.60;99.90
85509;DHT22;75919;48.506;8.946;2024-02-23T09:10:10;4.60;99.90
85509;DHT22;75919;48.506;8.946;2024-02-23T09:12:37;4.60;99.90
85509;DHT22;75919;48.506;8.946;2024-02-23T09:15:03;4.60;99.90
85509;DHT22;75919;48.506;8.946;2024-02-23T09:17:29;4.80;99.90
85509;DHT22;75919;48.506;8.946;2024-02-23T09:19:55;4.90;99.90
85509;DHT22;75919;48.506;8.946;2024-02-23T09:22:21;5.00;99.90
85509;DHT22;75919;48.506;8.946;2024-02-23T09:24:46;5.00;99.90
85509;DHT22;75919;48.506;8.946;2024-02-23T09:27:12;5.20;99.90
85509;DHT22;75919;48.506;8.946;2024-02-23T09:29:38;5.30;99.90
85509;DHT22;75919;48.506;8.946;2024-02-23T09:32:03;5.60;99.90
85509;DHT22;75919;48.506;8.946;2024-02-23T09:34:30;5.80;99.90
85509;DHT22;75919;48.506;8.946;2024-02-23T09:36:56;5.90;99.90
85509;DHT22;75919;48.506;8.946;2024-02-23T09:39:21;5.90;99.90
85509;DHT22;75919;48.506;8.946;2024-02-23T09:41:50;6.00;99.90
85509;DHT22;75919;48.506;8.946;2024-02-23T09:44:18;6.20;99.90
85509;DHT22;75919;48.506;8.946;2024-02-23T09:46:46;6.60;99.90
85509;DHT22;75919;48.506;8.946;2024-02-23T09:49:12;7.50;99.00
85509;DHT22;75919;48.506;8.946;2024-02-23T09:51:39;7.90;95.40
85509;DHT22;75919;48.506;8.946;2024-02-23T09:54:05;8.20;95.10
85509;DHT22;75919;48.506;8.946;2024-02-23T09:56:30;7.80;94.20
85509;DHT22;75919;48.506;8.946;2024-02-23T09:59:02;7.90;93.30
85509;DHT22;75919;48.506;8.946;2024-02-23T10:01:32;7.90;90.20
85509;DHT22;75919;48.506;8.946;2024-02-23T10:04:00;7.70;92.40
85509;DHT22;75919;48.506;8.946;2024-02-23T10:06:27;7.30;93.20
85509;DHT22;75919;48.506;8.946;2024-02-23T10:08:53;7.00;91.80
85509;DHT22;75919;48.506;8.946;2024-02-23T10:11:23;6.70;95.80
85509;DHT22;75919;48.506;8.946;2024-02-23T10:13:49;6.90;97.00
85509;DHT22;75919;48.506;8.946;2024-02-23T10:16:15;7.20;95.50
85509;DHT22;75919;48.506;8.946;2024-02-23T10:18:42;7.00;94.30
85509;DHT22;75919;48.506;8.946;2024-02-23T10:21:07;6.90;93.00
85509;DHT22;75919;48.506;8.946;2024-02-23T10:23:33;7.00;95.90
85509;DHT22;75919;48.506;8.946;2024-02-23T10:25:59;7.00;95.20
85509;DHT22;75919;48.506;8.946;2024-02-23T10:28:25;6.90;94.10
85509;DHT22;75919;48.506;8.946;2024-02-23T10:30:50;6.90;93.90
85509;DHT22;75919;48.506;8.946;2024-02-23T10:33:21;7.00;93.80
85509;DHT22;75919;48.506;8.946;2024-02-23T10:35:51;7.10;96.00
85509;DHT22;75919;48.506;8.946;2024-02-23T10:38:20;7.50;93.40
85509;DHT22;75919;48.506;8.946;2024-02-23T10:40:47;7.30;92.30
85509;DHT22;75919;48.506;8.946;2024-02-23T10:43:17;7.90;92.80
85509;DHT22;75919;48.506;8.946;2024-02-23T10:45:46;7.90;93.70
85509;DHT22;75919;48.506;8.946;2024-02-23T10:48:12;7.80;92.30
85509;DHT22;75919;48.506;8.946;2024-02-23T10:50:40;7.60;94.60
85509;DHT22;75919;48.506;8.946;2024-02-23T10:53:07;7.50;94.20
85509;DHT22;75919;48.506;8.946;2024-02-23T10:55:37;7.70;94.20
85509;DHT22;75919;48.506;8.946;2024-02-23T10:58:06;8.20;92.20
85509;DHT22;75919;48.506;8.946;2024-02-23T11:00:38;8.10;92.20
85509;DHT22;75919;48.506;8.946;2024-02-23T11:03:04;7.80;91.40
85509;DHT22;75919;48.506;8.946;2024-02-23T11:05:32;8.20;90.90
85509;DHT22;75919;48.506;8.946;2024-02-23T11:07:58;8.00;92.10
85509;DHT22;75919;48.506;8.946;2024-02-23T11:10:24;7.70;90.30
85509;DHT22;75919;48.506;8.946;2024-02-23T11:13:00;7.60;91.80
85509;DHT22;75919;48.506;8.946;2024-02-23T11:15:30;7.50;92.70
85509;DHT22;75919;48.506;8.946;2024-02-23T11:17:56;7.40;91.00
85509;DHT22;75919;48.506;8.946;2024-02-23T11:20:22;7.50;92.90
85509;DHT22;75919;48.506;8.946;2024-02-23T11:22:52;7.50;90.30
85509;DHT22;75919;48.506;8.946;2024-02-23T11:25:19;7.50;90.10
85509;DHT22;75919;48.506;8.946;2024-02-23T11:27:49;7.60;93.20
85509;DHT22;75919;48.506;8.946;2024-02-23T11:30:17;7.50;90.10
85509;DHT22;75919;48.506;8.946;2024-02-23T11:32:45;7.50;92.40
85509;DHT22;75919;48.506;8.946;2024-02-23T11:35:17;7.50;92.90
85509;DHT22;75919;48.506;8.946;2024-02-23T11:37:55;7.60;91.90
85509;DHT22;75919;48.506;8.946;2024-02-23T11:40:28;7.50;92.40
85509;DHT22;75919;48.506;8.946;2024-02-23T11:42:55;7.50;94.40
85509;DHT22;75919;48.506;8.946;2024-02-23T11:45:21;7.50;95.60
85509;DHT22;75919;48.506;8.946;2024-02-23T11:47:47;7.40;91.80
85509;DHT22;75919;48.506;8.946;2024-02-23T11:50:13;7.40;94.80
85509;DHT22;75919;48.506;8.946;2024-02-23T11:52:45;7.50;94.20
85509;DHT22;75919;48.506;8.946;2024-02-23T11:55:11;7.80;90.50
85509;DHT22;75919;48.506;8.946;2024-02-23T11:57:38;7.60;87.10
85509;DHT22;75919;48.506;8.946;2024-02-23T12:00:04;7.70;92.50
85509;DHT22;75919;48.506;8.946;2024-02-23T12:02:35;7.90;91.10
85509;DHT22;75919;48.506;8.946;2024-02-23T12:05:01;8.20;90.80
85509;DHT22;75919;48.506;8.946;2024-02-23T12:07:31;8.30;88.40
85509;DHT22;75919;48.506;8.946;2024-02-23T12:09:57;8.10;89.40
85509;DHT22;75919;48.506;8.946;2024-02-23T12:12:27;7.90;90.40
85509;DHT22;75919;48.506;8.946;2024-02-23T12:14:53;7.90;90.30
85509;DHT22;75919;48.506;8.946;2024-02-23T12:17:19;7.80;86.30
85509;DHT22;75919;48.506;8.946;2024-02-23T12:19:44;7.80;91.00
85509;DHT22;75919;48.506;8.946;2024-02-23T12:22:10;7.70;93.50
85509;DHT22;75919;48.506;8.946;2024-02-23T12:24:41;7.70;89.20
85509;DHT22;75919;48.506;8.946;2024-02-23T12:27:07;7.70;90.80
85509;DHT22;75919;48.506;8.946;2024-02-23T12:29:33;7.80;88.10
85509;DHT22;75919;48.506;8.946;2024-02-23T12:32:05;7.90;90.20
85509;DHT22;75919;48.506;8.946;2024-02-23T12:34:32;7.90;88.00
85509;DHT22;75919;48.506;8.946;2024-02-23T12:36:58;7.80;87.30
85509;DHT22;75919;48.506;8.946;2024-02-23T12:39:23;7.70;89.20
85509;DHT22;75919;48.506;8.946;2024-02-23T12:41:49;7.80;92.60
85509;DHT22;75919;48.506;8.946;2024-02-23T12:44:16;7.90;94.20
85509;DHT22;75919;48.506;8.946;2024-02-23T12:46:41;7.80;90.40
85509;DHT22;75919;48.506;8.946;2024-02-23T12:49:07;7.70;93.60
85509;DHT22;75919;48.506;8.946;2024-02-23T12:51:34;7.70;92.50
85509;DHT22;75919;48.506;8.946;2024-02-23T12:54:00;7.80;94.00
85509;DHT22;75919;48.506;8.946;2024-02-23T12:56:26;7.70;93.90
85509;DHT22;75919;48.506;8.946;2024-02-23T12:58:52;7.60;91.80
85509;DHT22;75919;48.506;8.946;2024-02-23T13:01:19;7.70;90.80
85509;DHT22;75919;48.506;8.946;2024-02-23T13:03:45;7.90;93.30
85509;DHT22;75919;48.506;8.946;2024-02-23T13:06:10;8.00;94.00
85509;DHT22;75919;48.506;8.946;2024-02-23T13:08:36;7.90;90.40
85509;DHT22;75919;48.506;8.946;2024-02-23T13:11:04;7.80;90.30
85509;DHT22;75919;48.506;8.946;2024-02-23T13:13:30;7.90;91.20
85509;DHT22;75919;48.506;8.946;2024-02-23T13:15:56;7.80;90.10
85509;DHT22;75919;48.506;8.946;2024-02-23T13:18:22;7.80;90.60
85509;DHT22;75919;48.506;8.946;2024-02-23T13:20:48;8.00;91.60
85509;DHT22;75919;48.506;8.946;2024-02-23T13:23:14;7.90;90.40
85509;DHT22;75919;48.506;8.946;2024-02-23T13:25:41;7.90;90.40
85509;DHT22;75919;48.506;8.946;2024-02-23T13:28:08;7.80;91.10
85509;DHT22;75919;48.506;8.946;2024-02-23T13:30:35;7.80;91.80
85509;DHT22;75919;48.506;8.946;2024-02-23T13:33:01;7.80;92.10
85509;DHT22;75919;48.506;8.946;2024-02-23T13:35:27;7.80;92.00
85509;DHT22;75919;48.506;8.946;2024-02-23T13:37:53;7.80;94.00
85509;DHT22;75919;48.506;8.946;2024-02-23T13:40:19;7.80;95.10
85509;DHT22;75919;48.506;8.946;2024-02-23T13:42:45;7.70;95.10
85509;DHT22;75919;48.506;8.946;2024-02-23T13:45:19;7.70;93.00
85509;DHT22;75919;48.506;8.946;2024-02-23T13:47:56;7.70;92.00
85509;DHT22;75919;48.506;8.946;2024-02-23T13:50:21;7.70;92.40
85509;DHT22;75919;48.506;8.946;2024-02-23T13:52:48;7.90;96.40
85509;DHT22;75919;48.506;8.946;2024-02-23T13:55:13;8.10;95.20
85509;DHT22;75919;48.506;8.946;2024-02-23T13:57:39;8.10;91.90
85509;DHT22;75919;48.506;8.946;2024-02-23T14:00:06;8.10;91.30
85509;DHT22;75919;48.506;8.946;2024-02-23T14:02:38;8.50;91.70
85509;DHT22;75919;48.506;8.946;2024-02-23T14:05:06;8.50;89.60
85509;DHT22;75919;48.506;8.946;2024-02-23T14:07:32;8.50;90.70
85509;DHT22;75919;48.506;8.946;2024-02-23T14:09:59;8.20;86.60
85509;DHT22;75919;48.506;8.946;2024-02-23T14:12:25;8.00;92.10
85509;DHT22;75919;48.506;8.946;2024-02-23T14:14:51;8.00;92.80
85509;DHT22;75919;48.506;8.946;2024-02-23T14:17:17;8.20;92.90
85509;DHT22;75919;48.506;8.946;2024-02-23T14:19:42;8.30;91.40
85509;DHT22;75919;48.506;8.946;2024-02-23T14:22:08;8.30;93.10
85509;DHT22;75919;48.506;8.946;2024-02-23T14:24:34;8.40;92.50
85509;DHT22;75919;48.506;8.946;2024-02-23T14:27:00;8.60;90.60
85509;DHT22;75919;48.506;8.946;2024-02-23T14:29:25;8.60;89.90
85509;DHT22;75919;48.506;8.946;2024-02-23T14:31:51;8.70;88.60
85509;DHT22;75919;48.506;8.946;2024-02-23T14:34:17;8.90;88.40
85509;DHT22;75919;48.506;8.946;2024-02-23T14:36:42;8.70;87.30
85509;DHT22;75919;48.506;8.946;2024-02-23T14:39:09;8.60;90.50
85509;DHT22;75919;48.506;8.946;2024-02-23T14:41:36;8.60;90.20
85509;DHT22;75919;48.506;8.946;2024-02-23T14:44:01;8.70;88.10
85509;DHT22;75919;48.506;8.946;2024-02-23T14:46:28;8.80;86.50
85509;DHT22;75919;48.506;8.946;2024-02-23T14:48:54;8.60;87.40
85509;DHT22;75919;48.506;8.946;2024-02-23T14:51:19;8.60;86.00
85509;DHT22;75919;48.506;8.946;2024-02-23T14:53:45;8.40;84.10
85509;DHT22;75919;48.506;8.946;2024-02-23T14:56:11;8.40;84.10
85509;DHT22;75919;48.506;8.946;2024-02-23T14:58:37;8.40;83.60
85509;DHT22;75919;48.506;8.946;2024-02-23T15:01:03;8.40;85.00
85509;DHT22;75919;48.506;8.946;2024-02-23T15:03:29;8.40;87.90
85509;DHT22;75919;48.506;8.946;2024-02-23T15:05:56;8.50;83.00
85509;DHT22;75919;48.506;8.946;2024-02-23T15:08:22;8.40;81.90
85509;DHT22;75919;48.506;8.946;2024-02-23T15:10:48;8.30;82.00
85509;DHT22;75919;48.506;8.946;2024-02-23T15:13:13;8.20;82.80
85509;DHT22;75919;48.506;8.946;2024-02-23T15:15:39;8.10;82.40
85509;DHT22;75919;48.506;8.946;2024-02-23T15:18:06;8.10;82.30
85509;DHT22;75919;48.506;8.946;2024-02-23T15:20:32;8.10;84.00
85509;DHT22;75919;48.506;8.946;2024-02-23T15:22:58;8.10;84.20
85509;DHT22;75919;48.506;8.946;2024-02-23T15:25:23;8.10;85.20
85509;DHT22;75919;48.506;8.946;2024-02-23T15:27:49;8.10;83.80
85509;DHT22;75919;48.506;8.946;2024-02-23T15:30:17;8.10;84.00
85509;DHT22;75919;48.506;8.946;2024-02-23T15:32:43;8.10;79.80
85509;DHT22;75919;48.506;8.946;2024-02-23T15:35:09;8.00;84.10
85509;DHT22;75919;48.506;8.946;2024-02-23T15:37:34;8.00;90.90
85509;DHT22;75919;48.506;8.946;2024-02-23T15:40:01;7.90;91.00
85509;DHT22;75919;48.506;8.946;2024-02-23T15:42:29;7.90;92.20
85509;DHT22;75919;48.506;8.946;2024-02-23T15:44:55;7.90;89.80
85509;DHT22;75919;48.506;8.946;2024-02-23T15:47:21;7.90;89.70
85509;DHT22;75919;48.506;8.946;2024-02-23T15:49:47;7.80;91.60
85509;DHT22;75919;48.506;8.946;2024-02-23T15:52:13;7.80;91.60
85509;DHT22;75919;48.506;8.946;2024-02-23T15:54:38;7.70;93.10
85509;DHT22;75919;48.506;8.946;2024-02-23T15:57:04;7.70;94.20
85509;DHT22;75919;48.506;8.946;2024-02-23T15:59:30;7.70;95.10
85509;DHT22;75919;48.506;8.946;2024-02-23T16:01:56;7.80;95.40
85509;DHT22;75919;48.506;8.946;2024-02-23T16:04:22;7.80;91.60
85509;DHT22;75919;48.506;8.946;2024-02-23T16:06:48;7.80;93.10
85509;DHT22;75919;48.506;8.946;2024-02-23T16:09:13;7.70;92.40
85509;DHT22;75919;48.506;8.946;2024-02-23T16:11:45;7.60;93.10
85509;DHT22;75919;48.506;8.946;2024-02-23T16:14:14;7.60;93.60
85509;DHT22;75919;48.506;8.946;2024-02-23T16:16:39;7.60;94.10
85509;DHT22;75919;48.506;8.946;2024-02-23T16:19:10;7.50;94.70
85509;DHT22;75919;48.506;8.946;2024-02-23T16:21:40;7.50;93.00
85509;DHT22;75919;48.506;8.946;2024-02-23T16:24:08;7.50;94.50
85509;DHT22;75919;48.506;8.946;2024-02-23T16:26:34;7.40;94.90
85509;DHT22;75919;48.506;8.946;2024-02-23T16:29:08;7.30;95.70
85509;DHT22;75919;48.506;8.946;2024-02-23T16:31:37;7.20;96.90
85509;DHT22;75919;48.506;8.946;2024-02-23T16:34:04;7.10;95.40
85509;DHT22;75919;48.506;8.946;2024-02-23T16:36:29;7.20;94.00
85509;DHT22;75919;48.506;8.946;2024-02-23T16:38:55;7.10;95.30
85509;DHT22;75919;48.506;8.946;2024-02-23T16:41:23;7.10;95.50
85509;DHT22;75919;48.506;8.946;2024-02-23T16:43:49;7.10;96.20
85509;DHT22;75919;48.506;8.946;2024-02-23T16:46:15;7.10;95.40
85509;DHT22;75919;48.506;8.946;2024-02-23T16:48:40;7.10;96.20
85509;DHT22;75919;48.506;8.946;2024-02-23T16:51:06;7.00;95.60
85509;DHT22;75919;48.506;8.946;2024-02-23T16:53:32;7.00;97.20
85509;DHT22;75919;48.506;8.946;2024-02-23T16:55:58;7.00;97.50
85509;DHT22;75919;48.506;8.946;2024-02-23T16:58:27;7.00;97.70
85509;DHT22;75919;48.506;8.946;2024-02-23T17:00:59;6.90;97.60
85509;DHT22;75919;48.506;8.946;2024-02-23T17:03:25;6.90;97.70
85509;DHT22;75919;48.506;8.946;2024-02-23T17:05:51;6.80;97.70
85509;DHT22;75919;48.506;8.946;2024-02-23T17:08:17;6.70;99.40
85509;DHT22;75919;48.506;8.946;2024-02-23T17:10:42;6.60;99.90
85509;DHT22;75919;48.506;8.946;2024-02-23T17:13:08;6.50;99.90
85509;DHT22;75919;48.506;8.946;2024-02-23T17:15:34;6.50;99.40
85509;DHT22;75919;48.506;8.946;2024-02-23T17:18:00;6.50;99.80
85509;DHT22;75919;48.506;8.946;2024-02-23T17:20:27;6.40;99.90
85509;DHT22;75919;48.506;8.946;2024-02-23T17:22:53;6.40;99.90
85509;DHT22;75919;48.506;8.946;2024-02-23T17:25:18;6.40;99.90
85509;DHT22;75919;48.506;8.946;2024-02-23T17:27:44;6.40;99.90
85509;DHT22;75919;48.506;8.946;2024-02-23T17:30:10;6.40;98.60
85509;DHT22;75919;48.506;8.946;2024-02-23T17:32:36;6.30;99.90
85509;DHT22;75919;48.506;8.946;2024-02-23T17:35:02;6.20;99.90
85509;DHT22;75919;48.506;8.946;2024-02-23T17:37:28;6.00;99.90
85509;DHT22;75919;48.506;8.946;2024-02-23T17:39:57;5.90;99.90
85509;DHT22;75919;48.506;8.946;2024-02-23T17:42:23;5.80;99.90
85509;DHT22;75919;48.506;8.946;2024-02-23T17:44:49;5.80;99.90
85509;DHT22;75919;48.506;8.946;2024-02-23T17:47:15;5.80;99.90
85509;DHT22;75919;48.506;8.946;2024-02-23T17:49:41;5.80;99.90
85509;DHT22;75919;48.506;8.946;2024-02-23T17:52:06;5.90;99.90
85509;DHT22;75919;48.506;8.946;2024-02-23T17:54:32;6.00;99.00
85509;DHT22;75919;48.506;8.946;2024-02-23T17:56:58;6.00;99.90
85509;DHT22;75919;48.506;8.946;2024-02-23T17:59:24;5.90;99.90
85509;DHT22;75919;48.506;8.946;2024-02-23T18:01:49;5.70;99.90
85509;DHT22;75919;48.506;8.946;2024-02-23T18:04:15;5.70;99.90
85509;DHT22;75919;48.506;8.946;2024-02-23T18:06:41;5.70;99.90
85509;DHT22;75919;48.506;8.946;2024-02-23T18:09:06;5.60;99.90
85509;DHT22;75919;48.506;8.946;2024-02-23T18:11:32;5.50;99.90
85509;DHT22;75919;48.506;8.946;2024-02-23T18:13:58;5.40;99.90
85509;DHT22;75919;48.506;8.946;2024-02-23T18:16:24;5.40;99.90
85509;DHT22;75919;48.506;8.946;2024-02-23T18:18:50;5.50;99.90
85509;DHT22;75919;48.506;8.946;2024-02-23T18:21:18;5.60;99.90
85509;DHT22;75919;48.506;8.946;2024-02-23T18:23:45;5.70;99.90
85509;DHT22;75919;48.506;8.946;2024-02-23T18:26:13;5.80;99.90
85509;DHT22;75919;48.506;8.946;2024-02-23T18:28:39;5.80;99.90
85509;DHT22;75919;48.506;8.946;2024-02-23T18:31:08;5.80;99.90
85509;DHT22;75919;48.506;8.946;2024-02-23T18:33:34;5.90;98.10
85509;DHT22;75919;48.506;8.946;2024-02-23T18:36:00;5.90;98.20
85509;DHT22;75919;48.506;8.946;2024-02-23T18:38:25;5.90;98.60
85509;DHT22;75919;48.506;8.946;2024-02-23T18:40:51;5.90;97.50
85509;DHT22;75919;48.506;8.946;2024-02-23T18:43:17;5.90;98.00
85509;DHT22;75919;48.506;8.946;2024-02-23T18:45:42;5.90;98.20
85509;DHT22;75919;48.506;8.946;2024-02-23T18:48:08;5.90;98.80
85509;DHT22;75919;48.506;8.946;2024-02-23T18:50:34;5.80;98.40
85509;DHT22;75919;48.506;8.946;2024-02-23T18:53:00;5.70;98.90
85509;DHT22;75919;48.506;8.946;2024-02-23T18:55:26;5.50;99.90
85509;DHT22;75919;48.506;8.946;2024-02-23T18:57:52;5.30;99.90
85509;DHT22;75919;48.506;8.946;2024-02-23T19:00:19;5.10;99.90
85509;DHT22;75919;48.506;8.946;2024-02-23T19:02:44;5.10;99.90
85509;DHT22;75919;48.506;8.946;2024-02-23T19:05:10;5.10;99.90
85509;DHT22;75919;48.506;8.946;2024-02-23T19:07:36;5.10;99.90
85509;DHT22;75919;48.506;8.946;2024-02-23T19:10:03;5.00;99.90
85509;DHT22;75919;48.506;8.946;2024-02-23T19:12:29;5.00;99.90
85509;DHT22;75919;48.506;8.946;2024-02-23T19:14:54;5.00;99.90
85509;DHT22;75919;48.506;8.946;2024-02-23T19:17:20;5.00;99.90
85509;DHT22;75919;48.506;8.946;2024-02-23T19:19:46;5.10;99.90
85509;DHT22;75919;48.506;8.946;2024-02-23T19:22:11;5.10;99.90
85509;DHT22;75919;48.506;8.946;2024-02-23T19:24:37;5.00;99.90
85509;DHT22;75919;48.506;8.946;2024-02-23T19:27:03;5.00;99.90
85509;DHT22;75919;48.506;8.946;2024-02-23T19:29:29;5.00;99.90
85509;DHT22;75919;48.506;8.946;2024-02-23T19:31:55;4.90;99.90
85509;DHT22;75919;48.506;8.946;2024-02-23T19:34:21;4.80;99.90
85509;DHT22;75919;48.506;8.946;2024-02-23T19:36:47;4.70;99.90
85509;DHT22;75919;48.506;8.946;2024-02-23T19:39:15;4.60;99.90
85509;DHT22;75919;48.506;8.946;2024-02-23T19:41:46;4.60;99.90
85509;DHT22;75919;48.506;8.946;2024-02-23T19:44:12;4.50;99.90
85509;DHT22;75919;48.506;8.946;2024-02-23T19:46:38;4.30;99.90
85509;DHT22;75919;48.506;8.946;2024-02-23T19:49:04;4.30;99.90
85509;DHT22;75919;48.506;8.946;2024-02-23T19:51:30;4.20;99.90
85509;DHT22;75919;48.506;8.946;2024-02-23T19:53:56;4.10;99.90
85509;DHT22;75919;48.506;8.946;2024-02-23T19:56:21;4.00;99.90
85509;DHT22;75919;48.506;8.946;2024-02-23T19:58:48;4.00;99.90
85509;DHT22;75919;48.506;8.946;2024-02-23T20:01:14;3.90;99.90
85509;DHT22;75919;48.506;8.946;2024-02-23T20:03:39;3.90;99.90
85509;DHT22;75919;48.506;8.946;2024-02-23T20:06:06;3.80;99.90
85509;DHT22;75919;48.506;8.946;2024-02-23T20:08:37;3.80;99.90
85509;DHT22;75919;48.506;8.946;2024-02-23T20:11:04;3.70;99.90
85509;DHT22;75919;48.506;8.946;2024-02-23T20:13:33;3.70;99.90
85509;DHT22;75919;48.506;8.946;2024-02-23T20:15:59;3.60;99.90
85509;DHT22;75919;48.506;8.946;2024-02-23T20:18:24;3.60;99.90
85509;DHT22;75919;48.506;8.946;2024-02-23T20:20:50;3.60;99.90
85509;DHT22;75919;48.506;8.946;2024-02-23T20:23:16;3.60;99.90
85509;DHT22;75919;48.506;8.946;2024-02-23T20:25:42;3.60;99.90
85509;DHT22;75919;48.506;8.946;2024-02-23T20:28:08;3.60;99.90
